Latest Weather Observations for Kurnell

IDN60901

Issued at 11:21 am EDT Friday 27 February 2015 (issued every 10 minutes, with the page automatically refreshed every 10 minutes)

About weather observations | Map of Sydney area stations | Latest observations for Sydney area | Other Formats
Station Details ID: 066043 Name: KURNELL AWS Lat: -34.00 Lon: 151.21 Height: 4.0 m
Data from the previous 72 hours. | See also: Recent months for locations in New South Wales
Date/Time
EDT
Tmp

°C
App
Tmp
°C
Dew
Point
°C
Rel
Hum
%
Delta-T

°C
Wind Press
QNH
hPa
Press
MSL
hPa
Rain
since
9 am
mm
Dir
 
Spd
km/h
Gust
km/h
Spd
kts
Gust
kts
27/11:00am - - - - - SE 17 26 9 14 - - -
27/10:30am - - - - - SSE 20 28 11 15 - - -
27/10:00am - - - - - SE 20 28 11 15 - - -
27/09:30am - - - - - SSE 20 30 11 16 - - -
27/09:00am - - - - - SSE 22 30 12 16 - - -
27/08:30am - - - - - SSE 20 28 11 15 - - -
27/08:00am - - - - - S 19 26 10 14 - - -
27/07:30am - - - - - SSE 17 26 9 14 - - -
27/07:00am - - - - - SE 15 26 8 14 - - -
27/06:30am - - - - - S 15 17 8 9 - - -
27/06:00am - - - - - S 17 22 9 12 - - -
27/05:30am - - - - - SSW 17 26 9 14 - - -
27/05:00am - - - - - SSW 17 22 9 12 - - -
27/04:30am - - - - - SSW 19 26 10 14 - - -
27/04:00am - - - - - SSW 20 30 11 16 - - -
27/03:30am - - - - - SW 19 24 10 13 - - -
27/03:00am - - - - - SW 20 24 11 13 - - -
27/02:30am - - - - - SSW 19 24 10 13 - - -
27/02:00am - - - - - SW 17 20 9 11 - - -
27/01:30am - - - - - SW 13 19 7 10 - - -
27/01:00am - - - - - SW 13 17 7 9 - - -
27/12:30am - - - - - SW 11 11 6 6 - - -
27/12:00am - - - - - SW 11 13 6 7 - - -
 
Date/Time
EDT
Tmp

°C
App
Tmp
°C
Dew
Point
°C
Rel
Hum
%
Delta-T

°C
Wind Press
QNH
hPa
Press
MSL
hPa
Rain
since
9 am
mm
Dir
 
Spd
km/h
Gust
km/h
Spd
kts
Gust
kts
26/11:30pm - - - - - SSE 7 9 4 5 - - -
26/11:00pm - - - - - CALM 0 0 0 0 - - -
26/10:30pm - - - - - SW 4 9 2 5 - - -
26/10:00pm - - - - - CALM 0 0 0 0 - - -
26/09:30pm - - - - - SW 13 15 7 8 - - -
26/09:00pm - - - - - SSW 6 11 3 6 - - -
26/08:30pm - - - - - SW 7 13 4 7 - - -
26/08:00pm - - - - - ENE 26 28 14 15 - - -
26/07:30pm - - - - - SE 11 13 6 7 - - -
26/07:00pm - - - - - ESE 6 9 3 5 - - -
26/06:30pm - - - - - ENE 13 15 7 8 - - -
26/06:00pm - - - - - E 17 19 9 10 - - -
26/05:30pm - - - - - ENE 19 22 10 12 - - -
26/05:00pm - - - - - ENE 20 24 11 13 - - -
26/04:30pm - - - - - ENE 20 26 11 14 - - -
26/04:00pm - - - - - ENE 19 22 10 12 - - -
26/03:30pm - - - - - ENE 20 24 11 13 - - -
26/03:00pm - - - - - ENE 19 22 10 12 - - -
26/02:30pm - - - - - ENE 20 24 11 13 - - -
26/02:00pm - - - - - E 19 22 10 12 - - -
26/01:30pm - - - - - E 13 17 7 9 - - -
26/01:00pm - - - - - E 11 15 6 8 - - -
26/12:30pm - - - - - E 11 15 6 8 - - -
26/12:00pm - - - - - WNW 9 13 5 7 - - -
26/11:30am - - - - - W 9 11 5 6 - - -
26/11:00am - - - - - WNW 11 13 6 7 - - -
26/10:30am - - - - - NW 11 13 6 7 - - -
26/10:00am - - - - - NW 9 11 5 6 - - -
26/09:30am - - - - - NW 13 13 7 7 - - -
26/09:00am - - - - - WNW 13 15 7 8 - - -
26/08:30am - - - - - W 15 15 8 8 - - -
26/08:00am - - - - - W 9 9 5 5 - - -
26/07:30am - - - - - W 9 11 5 6 - - -
26/07:00am - - - - - CALM 0 0 0 0 - - -
26/06:30am - - - - - CALM 0 0 0 0 - - -
26/06:00am - - - - - CALM 0 4 0 2 - - -
26/05:30am - - - - - SE 7 9 4 5 - - -
26/05:00am - - - - - CALM 0 0 0 0 - - -
26/04:30am - - - - - S 6 7 3 4 - - -
26/04:00am - - - - - S 7 9 4 5 - - -
26/03:30am - - - - - SSE 9 11 5 6 - - -
26/03:00am - - - - - S 7 11 4 6 - - -
26/02:30am - - - - - SSW 9 11 5 6 - - -
26/02:00am - - - - - SW 13 15 7 8 - - -
26/01:30am - - - - - SW 13 15 7 8 - - -
26/01:00am - - - - - SE 4 6 2 3 - - -
26/12:30am - - - - - SE 7 9 4 5 - - -
26/12:00am - - - - - SSE 13 17 7 9 - - -
 
Date/Time
EDT
Tmp

°C
App
Tmp
°C
Dew
Point
°C
Rel
Hum
%
Delta-T

°C
Wind Press
QNH
hPa
Press
MSL
hPa
Rain
since
9 am
mm
Dir
 
Spd
km/h
Gust
km/h
Spd
kts
Gust
kts
25/11:30pm - - - - - SSE 7 9 4 5 - - -
25/11:00pm - - - - - SE 7 9 4 5 - - -
25/10:30pm - - - - - SSE 11 13 6 7 - - -
25/10:00pm - - - - - SE 13 17 7 9 - - -
25/09:30pm - - - - - SE 15 20 8 11 - - -
25/09:00pm - - - - - SE 15 19 8 10 - - -
25/08:30pm - - - - - SSE 13 17 7 9 - - -
25/08:00pm - - - - - SSE 17 20 9 11 - - -
25/07:30pm - - - - - SSE 19 26 10 14 - - -
25/07:00pm - - - - - S 17 22 9 12 - - -
25/06:30pm - - - - - S 19 26 10 14 - - -
25/06:00pm - - - - - S 24 32 13 17 - - -
25/05:30pm - - - - - S 22 30 12 16 - - -
25/05:00pm - - - - - SSE 19 30 10 16 - - -
25/04:30pm - - - - - SSE 20 30 11 16 - - -
25/04:00pm - - - - - SSE 22 32 12 17 - - -
25/03:30pm - - - - - SSE 22 30 12 16 - - -
25/03:00pm - - - - - SSE 24 35 13 19 - - -
25/02:30pm - - - - - SSE 24 37 13 20 - - -
25/02:00pm - - - - - SSE 26 37 14 20 - - -
25/01:30pm - - - - - SSE 22 35 12 19 - - -
25/01:00pm - - - - - S 24 35 13 19 - - -
25/12:30pm - - - - - S 24 33 13 18 - - -
25/12:00pm - - - - - S 24 35 13 19 - - -
25/11:30am - - - - - SSE 26 35 14 19 - - -
25/11:00am - - - - - SSE 26 35 14 19 - - -
25/10:30am - - - - - SSE 30 41 16 22 - - -
25/10:00am - - - - - SSE 26 39 14 21 - - -
25/09:30am - - - - - SE 26 33 14 18 - - -
25/09:00am - - - - - ESE 24 33 13 18 - - -
25/08:30am - - - - - N 7 9 4 5 - - -
25/08:00am - - - - - NNW 6 7 3 4 - - -
25/07:30am - - - - - SW 13 17 7 9 - - -
25/07:00am - - - - - SW 13 19 7 10 - - -
25/06:30am - - - - - SW 15 19 8 10 - - -
25/06:00am - - - - - WSW 11 15 6 8 - - -
25/05:30am - - - - - SW 13 19 7 10 - - -
25/05:00am - - - - - SW 13 17 7 9 - - -
25/04:30am - - - - - SW 13 17 7 9 - - -
25/04:00am - - - - - WSW 17 24 9 13 - - -
25/03:30am - - - - - WSW 17 20 9 11 - - -
25/03:00am - - - - - SSW 22 32 12 17 - - -
25/02:30am - - - - - SSW 24 33 13 18 - - -
25/02:00am - - - - - SSW 24 30 13 16 - - -
25/01:30am - - - - - SSW 24 33 13 18 - - -
25/01:00am - - - - - SSW 20 28 11 15 - - -
25/12:30am - - - - - SSW 26 35 14 19 - - -
25/12:00am - - - - - SSW 30 37 16 20 - - -
 
Date/Time
EDT
Tmp

°C
App
Tmp
°C
Dew
Point
°C
Rel
Hum
%
Delta-T

°C
Wind Press
QNH
hPa
Press
MSL
hPa
Rain
since
9 am
mm
Dir
 
Spd
km/h
Gust
km/h
Spd
kts
Gust
kts
24/11:30pm - - - - - SSW 30 35 16 19 - - -
24/11:00pm - - - - - SSW 32 43 17 23 - - -
24/10:30pm - - - - - SSW 33 48 18 26 - - -
24/10:19pm - - - - - SSW 33 54 18 29 - - -
24/10:00pm - - - - - SSW 33 44 18 24 - - -
24/09:30pm - - - - - SW 33 46 18 25 - - -
24/09:00pm - - - - - SSW 32 43 17 23 - - -
24/08:30pm - - - - - SSW 32 41 17 22 - - -
24/08:00pm - - - - - SSW 35 50 19 27 - - -
24/07:30pm - - - - - SSW 32 43 17 23 - - -
24/07:00pm - - - - - SSW 32 41 17 22 - - -
24/06:30pm - - - - - SSW 33 46 18 25 - - -
24/06:00pm - - - - - SSW 39 48 21 26 - - -
24/05:30pm - - - - - SSW 37 54 20 29 - - -
24/05:00pm - - - - - SSW 37 50 20 27 - - -
24/04:30pm - - - - - SSW 43 57 23 31 - - -
24/04:00pm - - - - - SSW 39 56 21 30 - - -
24/03:45pm - - - - - SSW 39 57 21 31 - - -
24/03:30pm - - - - - SSW 43 56 23 30 - - -
24/03:10pm - - - - - SSW 43 61 23 33 - - -
24/03:00pm - - - - - SSW 44 59 24 32 - - -
24/02:30pm - - - - - SSW 43 61 23 33 - - -
24/02:00pm - - - - - SSW 44 63 24 34 - - -
24/01:45pm - - - - - SSW 44 63 24 34 - - -
24/01:30pm - - - - - SSW 43 59 23 32 - - -
24/01:14pm - - - - - SSW 44 63 24 34 - - -
24/01:00pm - - - - - SSW 44 57 24 31 - - -
24/12:50pm - - - - - SSW 41 59 22 32 - - -
24/12:30pm - - - - - SSW 43 56 23 30 - - -
24/12:13pm - - - - - SSW 43 61 23 33 - - -
24/12:00pm - - - - - SSW 43 56 23 30 - - -
24/11:41am - - - - - SSW 39 57 21 31 - - -
24/11:30am - - - - - SSW 39 56 21 30 - - -

Latest Capital City Observations: Canberra | Sydney | Melbourne | Brisbane | Adelaide | Perth | Hobart | Darwin

Other Formats:

Comma delimited format used in spreadsheet applications
http://www.bom.gov.au/fwo/IDN60901/IDN60901.95756.axf

JavaScript Object Notation format (JSON) in row-major order
http://www.bom.gov.au/fwo/IDN60901/IDN60901.95756.json